Terminal Aerodrome Forecast
Issued by NWS

Home | Current Version | Previous Version | Text Only | Print | Product List | Glossary On
Versions: 1 2 3 4 5 6 7 8 9 10 11 12 13 14 15 16 17 18 19 20 21 22
481
FTUS44 KLZK 182302 AAB
TAFLIT
TAF AMD
KLIT 182302Z 1823/1918 06008KT 5SM BR SCT007 OVC015
      TEMPO 1823/1902 2SM -DZ BR OVC007
     FM190200 05003KT 2SM -RA BR OVC005
     FM190800 07002KT 4SM -SHRA BR OVC003
      TEMPO 1908/1912 4SM -TSRA BKN003CB
     FM191600 26003KT 4SM BR OVC003=

USA.gov is the U.S. government's official web portal to all federal, state and local government web resources and services.